sensor_id;sensor_type;location;lat;lon;timestamp;P1;durP1;ratioP1;P2;durP2;ratioP2
2299;SDS011;1158;48.750;9.078;2023-02-12T00:01:15;21.77;;;12.47;;
2299;SDS011;1158;48.750;9.078;2023-02-12T00:03:43;21.60;;;13.03;;
2299;SDS011;1158;48.750;9.078;2023-02-12T00:06:10;23.83;;;14.20;;
2299;SDS011;1158;48.750;9.078;2023-02-12T00:08:37;18.87;;;12.50;;
2299;SDS011;1158;48.750;9.078;2023-02-12T00:11:09;20.67;;;13.40;;
2299;SDS011;1158;48.750;9.078;2023-02-12T00:13:37;18.67;;;12.63;;
2299;SDS011;1158;48.750;9.078;2023-02-12T00:16:05;19.00;;;12.57;;
2299;SDS011;1158;48.750;9.078;2023-02-12T00:18:34;20.73;;;12.50;;
2299;SDS011;1158;48.750;9.078;2023-02-12T00:21:01;19.13;;;11.57;;
2299;SDS011;1158;48.750;9.078;2023-02-12T00:23:28;17.17;;;11.43;;
2299;SDS011;1158;48.750;9.078;2023-02-12T00:25:55;22.20;;;13.30;;
2299;SDS011;1158;48.750;9.078;2023-02-12T00:28:22;21.53;;;12.40;;
2299;SDS011;1158;48.750;9.078;2023-02-12T00:30:49;20.37;;;13.60;;
2299;SDS011;1158;48.750;9.078;2023-02-12T00:33:16;22.13;;;12.87;;
2299;SDS011;1158;48.750;9.078;2023-02-12T00:35:44;22.53;;;13.50;;
2299;SDS011;1158;48.750;9.078;2023-02-12T00:38:19;21.90;;;12.50;;
2299;SDS011;1158;48.750;9.078;2023-02-12T00:40:46;24.20;;;15.30;;
2299;SDS011;1158;48.750;9.078;2023-02-12T00:43:13;25.03;;;13.50;;
2299;SDS011;1158;48.750;9.078;2023-02-12T00:45:39;22.77;;;14.53;;
2299;SDS011;1158;48.750;9.078;2023-02-12T00:48:06;24.57;;;13.63;;
2299;SDS011;1158;48.750;9.078;2023-02-12T00:50:33;21.70;;;12.77;;
2299;SDS011;1158;48.750;9.078;2023-02-12T00:53:01;26.73;;;15.10;;
2299;SDS011;1158;48.750;9.078;2023-02-12T00:55:28;22.80;;;13.30;;
2299;SDS011;1158;48.750;9.078;2023-02-12T00:57:57;21.97;;;13.10;;
2299;SDS011;1158;48.750;9.078;2023-02-12T01:00:23;22.73;;;13.70;;
2299;SDS011;1158;48.750;9.078;2023-02-12T01:02:50;22.73;;;14.67;;
2299;SDS011;1158;48.750;9.078;2023-02-12T01:05:17;21.53;;;12.60;;
2299;SDS011;1158;48.750;9.078;2023-02-12T01:07:47;22.33;;;12.27;;
2299;SDS011;1158;48.750;9.078;2023-02-12T01:10:16;21.50;;;11.60;;
2299;SDS011;1158;48.750;9.078;2023-02-12T01:12:44;16.80;;;11.27;;
2299;SDS011;1158;48.750;9.078;2023-02-12T01:15:12;17.93;;;12.07;;
2299;SDS011;1158;48.750;9.078;2023-02-12T01:17:39;18.07;;;11.70;;
2299;SDS011;1158;48.750;9.078;2023-02-12T01:20:07;20.43;;;11.30;;
2299;SDS011;1158;48.750;9.078;2023-02-12T01:22:36;16.30;;;11.37;;
2299;SDS011;1158;48.750;9.078;2023-02-12T01:25:04;20.27;;;11.17;;
2299;SDS011;1158;48.750;9.078;2023-02-12T01:27:33;18.97;;;11.43;;
2299;SDS011;1158;48.750;9.078;2023-02-12T01:30:00;19.43;;;11.70;;
2299;SDS011;1158;48.750;9.078;2023-02-12T01:32:27;19.77;;;12.30;;
2299;SDS011;1158;48.750;9.078;2023-02-12T01:34:54;19.60;;;12.60;;
2299;SDS011;1158;48.750;9.078;2023-02-12T01:37:20;19.67;;;13.73;;
2299;SDS011;1158;48.750;9.078;2023-02-12T01:39:47;17.80;;;12.20;;
2299;SDS011;1158;48.750;9.078;2023-02-12T01:42:14;18.10;;;12.03;;
2299;SDS011;1158;48.750;9.078;2023-02-12T01:44:44;22.93;;;13.00;;
2299;SDS011;1158;48.750;9.078;2023-02-12T01:47:31;17.87;;;12.37;;
2299;SDS011;1158;48.750;9.078;2023-02-12T01:49:57;21.67;;;13.40;;
2299;SDS011;1158;48.750;9.078;2023-02-12T01:52:25;15.97;;;12.07;;
2299;SDS011;1158;48.750;9.078;2023-02-12T01:54:55;19.77;;;12.27;;
2299;SDS011;1158;48.750;9.078;2023-02-12T01:57:26;23.00;;;13.60;;
2299;SDS011;1158;48.750;9.078;2023-02-12T01:59:56;19.13;;;11.97;;
2299;SDS011;1158;48.750;9.078;2023-02-12T02:02:25;18.30;;;11.70;;
2299;SDS011;1158;48.750;9.078;2023-02-12T02:04:53;21.83;;;12.57;;
2299;SDS011;1158;48.750;9.078;2023-02-12T02:07:24;19.23;;;12.10;;
2299;SDS011;1158;48.750;9.078;2023-02-12T02:09:51;21.40;;;13.60;;
2299;SDS011;1158;48.750;9.078;2023-02-12T02:12:18;27.07;;;12.90;;
2299;SDS011;1158;48.750;9.078;2023-02-12T02:15:03;18.30;;;12.87;;
2299;SDS011;1158;48.750;9.078;2023-02-12T02:17:33;25.77;;;13.23;;
2299;SDS011;1158;48.750;9.078;2023-02-12T02:20:27;23.20;;;12.90;;
2299;SDS011;1158;48.750;9.078;2023-02-12T02:23:19;24.50;;;14.43;;
2299;SDS011;1158;48.750;9.078;2023-02-12T02:25:56;20.67;;;13.13;;
2299;SDS011;1158;48.750;9.078;2023-02-12T02:28:53;21.83;;;13.10;;
2299;SDS011;1158;48.750;9.078;2023-02-12T02:31:29;22.37;;;13.10;;
2299;SDS011;1158;48.750;9.078;2023-02-12T02:34:02;23.33;;;15.33;;
2299;SDS011;1158;48.750;9.078;2023-02-12T02:36:36;26.37;;;15.47;;
2299;SDS011;1158;48.750;9.078;2023-02-12T02:39:08;27.50;;;13.87;;
2299;SDS011;1158;48.750;9.078;2023-02-12T02:41:43;18.97;;;12.13;;
2299;SDS011;1158;48.750;9.078;2023-02-12T02:44:14;23.90;;;14.80;;
2299;SDS011;1158;48.750;9.078;2023-02-12T02:46:46;19.20;;;13.70;;
2299;SDS011;1158;48.750;9.078;2023-02-12T02:49:15;20.90;;;13.73;;
2299;SDS011;1158;48.750;9.078;2023-02-12T02:51:47;19.50;;;12.67;;
2299;SDS011;1158;48.750;9.078;2023-02-12T02:54:18;22.10;;;13.67;;
2299;SDS011;1158;48.750;9.078;2023-02-12T02:56:50;21.30;;;12.83;;
2299;SDS011;1158;48.750;9.078;2023-02-12T02:59:22;25.10;;;14.67;;
2299;SDS011;1158;48.750;9.078;2023-02-12T03:01:55;24.93;;;13.37;;
2299;SDS011;1158;48.750;9.078;2023-02-12T03:04:26;24.60;;;14.70;;
2299;SDS011;1158;48.750;9.078;2023-02-12T03:06:57;26.63;;;14.77;;
2299;SDS011;1158;48.750;9.078;2023-02-12T03:09:30;24.47;;;13.70;;
2299;SDS011;1158;48.750;9.078;2023-02-12T03:12:02;26.63;;;14.83;;
2299;SDS011;1158;48.750;9.078;2023-02-12T03:14:33;19.33;;;11.33;;
2299;SDS011;1158;48.750;9.078;2023-02-12T03:17:05;19.77;;;12.77;;
2299;SDS011;1158;48.750;9.078;2023-02-12T03:19:36;23.33;;;12.60;;
2299;SDS011;1158;48.750;9.078;2023-02-12T03:22:07;26.03;;;14.33;;
2299;SDS011;1158;48.750;9.078;2023-02-12T03:24:38;23.17;;;13.53;;
2299;SDS011;1158;48.750;9.078;2023-02-12T03:27:08;22.23;;;12.60;;
2299;SDS011;1158;48.750;9.078;2023-02-12T03:29:38;21.67;;;12.90;;
2299;SDS011;1158;48.750;9.078;2023-02-12T03:32:11;19.40;;;11.73;;
2299;SDS011;1158;48.750;9.078;2023-02-12T03:34:46;20.00;;;13.40;;
2299;SDS011;1158;48.750;9.078;2023-02-12T03:37:17;22.10;;;12.83;;
2299;SDS011;1158;48.750;9.078;2023-02-12T03:39:49;20.87;;;13.80;;
2299;SDS011;1158;48.750;9.078;2023-02-12T03:42:21;22.43;;;12.30;;
2299;SDS011;1158;48.750;9.078;2023-02-12T03:45:00;18.97;;;13.03;;
2299;SDS011;1158;48.750;9.078;2023-02-12T03:47:36;18.50;;;12.73;;
2299;SDS011;1158;48.750;9.078;2023-02-12T03:50:09;20.43;;;13.10;;
2299;SDS011;1158;48.750;9.078;2023-02-12T03:52:39;21.40;;;13.30;;
2299;SDS011;1158;48.750;9.078;2023-02-12T03:55:07;24.13;;;13.43;;
2299;SDS011;1158;48.750;9.078;2023-02-12T03:57:36;17.30;;;12.20;;
2299;SDS011;1158;48.750;9.078;2023-02-12T04:00:07;19.03;;;12.63;;
2299;SDS011;1158;48.750;9.078;2023-02-12T04:02:37;25.67;;;12.50;;
2299;SDS011;1158;48.750;9.078;2023-02-12T04:05:05;22.23;;;12.93;;
2299;SDS011;1158;48.750;9.078;2023-02-12T04:07:33;26.33;;;14.93;;
2299;SDS011;1158;48.750;9.078;2023-02-12T04:10:02;21.70;;;13.50;;
2299;SDS011;1158;48.750;9.078;2023-02-12T04:12:31;19.33;;;12.60;;
2299;SDS011;1158;48.750;9.078;2023-02-12T04:15:07;27.30;;;14.60;;
2299;SDS011;1158;48.750;9.078;2023-02-12T04:17:49;23.10;;;12.67;;
2299;SDS011;1158;48.750;9.078;2023-02-12T04:20:24;21.67;;;13.43;;
2299;SDS011;1158;48.750;9.078;2023-02-12T04:23:00;22.77;;;13.80;;
2299;SDS011;1158;48.750;9.078;2023-02-12T04:25:40;22.57;;;13.13;;
2299;SDS011;1158;48.750;9.078;2023-02-12T04:28:18;23.80;;;14.73;;
2299;SDS011;1158;48.750;9.078;2023-02-12T04:30:54;21.77;;;12.70;;
2299;SDS011;1158;48.750;9.078;2023-02-12T04:33:26;24.00;;;14.87;;
2299;SDS011;1158;48.750;9.078;2023-02-12T04:36:00;20.80;;;13.17;;
2299;SDS011;1158;48.750;9.078;2023-02-12T04:38:31;20.87;;;14.13;;
2299;SDS011;1158;48.750;9.078;2023-02-12T04:41:03;24.20;;;14.40;;
2299;SDS011;1158;48.750;9.078;2023-02-12T04:43:31;19.93;;;12.50;;
2299;SDS011;1158;48.750;9.078;2023-02-12T04:45:59;21.27;;;13.60;;
2299;SDS011;1158;48.750;9.078;2023-02-12T04:48:27;23.03;;;13.57;;
2299;SDS011;1158;48.750;9.078;2023-02-12T04:50:54;22.00;;;13.43;;
2299;SDS011;1158;48.750;9.078;2023-02-12T04:53:21;23.43;;;13.73;;
2299;SDS011;1158;48.750;9.078;2023-02-12T04:55:48;23.53;;;15.03;;
2299;SDS011;1158;48.750;9.078;2023-02-12T04:58:14;26.20;;;13.63;;
2299;SDS011;1158;48.750;9.078;2023-02-12T05:00:41;23.40;;;14.37;;
2299;SDS011;1158;48.750;9.078;2023-02-12T05:03:08;19.40;;;14.23;;
2299;SDS011;1158;48.750;9.078;2023-02-12T05:05:36;22.70;;;13.70;;
2299;SDS011;1158;48.750;9.078;2023-02-12T05:08:03;23.27;;;13.73;;
2299;SDS011;1158;48.750;9.078;2023-02-12T05:10:30;23.70;;;13.73;;
2299;SDS011;1158;48.750;9.078;2023-02-12T05:12:57;21.83;;;13.13;;
2299;SDS011;1158;48.750;9.078;2023-02-12T05:15:23;16.27;;;12.10;;
2299;SDS011;1158;48.750;9.078;2023-02-12T05:17:50;20.13;;;13.27;;
2299;SDS011;1158;48.750;9.078;2023-02-12T05:20:17;23.80;;;13.00;;
2299;SDS011;1158;48.750;9.078;2023-02-12T05:22:45;22.07;;;14.30;;
2299;SDS011;1158;48.750;9.078;2023-02-12T05:25:16;18.83;;;12.33;;
2299;SDS011;1158;48.750;9.078;2023-02-12T05:27:42;21.57;;;12.73;;
2299;SDS011;1158;48.750;9.078;2023-02-12T05:30:09;22.80;;;12.63;;
2299;SDS011;1158;48.750;9.078;2023-02-12T05:32:37;20.80;;;13.90;;
2299;SDS011;1158;48.750;9.078;2023-02-12T05:35:04;23.60;;;14.30;;
2299;SDS011;1158;48.750;9.078;2023-02-12T05:37:32;21.90;;;13.20;;
2299;SDS011;1158;48.750;9.078;2023-02-12T05:40:01;22.13;;;12.43;;
2299;SDS011;1158;48.750;9.078;2023-02-12T05:42:29;19.97;;;13.70;;
2299;SDS011;1158;48.750;9.078;2023-02-12T05:44:55;24.60;;;13.50;;
2299;SDS011;1158;48.750;9.078;2023-02-12T05:47:22;23.90;;;15.90;;
2299;SDS011;1158;48.750;9.078;2023-02-12T05:49:49;19.67;;;13.80;;
2299;SDS011;1158;48.750;9.078;2023-02-12T05:52:16;19.03;;;12.87;;
2299;SDS011;1158;48.750;9.078;2023-02-12T05:54:43;23.13;;;14.50;;
2299;SDS011;1158;48.750;9.078;2023-02-12T05:57:11;25.67;;;14.97;;
2299;SDS011;1158;48.750;9.078;2023-02-12T05:59:37;26.50;;;13.87;;
2299;SDS011;1158;48.750;9.078;2023-02-12T06:02:04;24.83;;;15.30;;
2299;SDS011;1158;48.750;9.078;2023-02-12T06:04:31;24.73;;;15.80;;
2299;SDS011;1158;48.750;9.078;2023-02-12T06:06:58;28.90;;;15.50;;
2299;SDS011;1158;48.750;9.078;2023-02-12T06:09:25;24.40;;;15.10;;
2299;SDS011;1158;48.750;9.078;2023-02-12T06:11:52;28.73;;;15.83;;
2299;SDS011;1158;48.750;9.078;2023-02-12T06:14:20;20.17;;;14.43;;
2299;SDS011;1158;48.750;9.078;2023-02-12T06:16:48;28.33;;;15.53;;
2299;SDS011;1158;48.750;9.078;2023-02-12T06:19:16;23.70;;;15.57;;
2299;SDS011;1158;48.750;9.078;2023-02-12T06:21:44;23.20;;;14.90;;
2299;SDS011;1158;48.750;9.078;2023-02-12T06:24:11;27.40;;;15.87;;
2299;SDS011;1158;48.750;9.078;2023-02-12T06:26:38;25.30;;;16.67;;
2299;SDS011;1158;48.750;9.078;2023-02-12T06:29:05;24.77;;;14.90;;
2299;SDS011;1158;48.750;9.078;2023-02-12T06:31:34;27.80;;;16.30;;
2299;SDS011;1158;48.750;9.078;2023-02-12T06:34:02;27.43;;;16.33;;
2299;SDS011;1158;48.750;9.078;2023-02-12T06:36:31;23.13;;;14.50;;
2299;SDS011;1158;48.750;9.078;2023-02-12T06:38:59;22.80;;;14.73;;
2299;SDS011;1158;48.750;9.078;2023-02-12T06:41:26;27.60;;;15.17;;
2299;SDS011;1158;48.750;9.078;2023-02-12T06:43:53;22.70;;;14.80;;
2299;SDS011;1158;48.750;9.078;2023-02-12T06:46:21;24.77;;;15.43;;
2299;SDS011;1158;48.750;9.078;2023-02-12T06:48:52;25.13;;;17.80;;
2299;SDS011;1158;48.750;9.078;2023-02-12T06:51:19;21.60;;;14.90;;
2299;SDS011;1158;48.750;9.078;2023-02-12T06:53:47;23.47;;;15.60;;
2299;SDS011;1158;48.750;9.078;2023-02-12T06:56:14;26.37;;;15.60;;
2299;SDS011;1158;48.750;9.078;2023-02-12T06:58:42;24.80;;;15.23;;
2299;SDS011;1158;48.750;9.078;2023-02-12T07:01:10;28.10;;;17.17;;
2299;SDS011;1158;48.750;9.078;2023-02-12T07:03:39;27.30;;;15.80;;
2299;SDS011;1158;48.750;9.078;2023-02-12T07:06:08;23.00;;;15.67;;
2299;SDS011;1158;48.750;9.078;2023-02-12T07:08:35;23.07;;;15.90;;
2299;SDS011;1158;48.750;9.078;2023-02-12T07:11:02;27.70;;;16.37;;
2299;SDS011;1158;48.750;9.078;2023-02-12T07:13:29;24.57;;;16.27;;
2299;SDS011;1158;48.750;9.078;2023-02-12T07:16:01;24.97;;;15.20;;
2299;SDS011;1158;48.750;9.078;2023-02-12T07:18:28;23.30;;;14.60;;
2299;SDS011;1158;48.750;9.078;2023-02-12T07:20:55;23.10;;;14.97;;
2299;SDS011;1158;48.750;9.078;2023-02-12T07:23:23;22.43;;;15.80;;
2299;SDS011;1158;48.750;9.078;2023-02-12T07:25:53;27.17;;;15.27;;
2299;SDS011;1158;48.750;9.078;2023-02-12T07:28:21;22.90;;;15.33;;
2299;SDS011;1158;48.750;9.078;2023-02-12T07:30:47;23.57;;;14.63;;
2299;SDS011;1158;48.750;9.078;2023-02-12T07:33:14;23.57;;;14.60;;
2299;SDS011;1158;48.750;9.078;2023-02-12T07:35:41;22.93;;;14.57;;
2299;SDS011;1158;48.750;9.078;2023-02-12T07:38:07;25.07;;;15.73;;
2299;SDS011;1158;48.750;9.078;2023-02-12T07:40:35;23.03;;;15.10;;
2299;SDS011;1158;48.750;9.078;2023-02-12T07:43:02;25.60;;;17.17;;
2299;SDS011;1158;48.750;9.078;2023-02-12T07:45:29;23.93;;;15.67;;
2299;SDS011;1158;48.750;9.078;2023-02-12T07:47:56;23.87;;;16.73;;
2299;SDS011;1158;48.750;9.078;2023-02-12T07:50:22;30.20;;;17.50;;
2299;SDS011;1158;48.750;9.078;2023-02-12T07:52:49;29.57;;;17.60;;
2299;SDS011;1158;48.750;9.078;2023-02-12T07:55:16;30.80;;;17.87;;
2299;SDS011;1158;48.750;9.078;2023-02-12T07:57:45;29.20;;;18.87;;
2299;SDS011;1158;48.750;9.078;2023-02-12T08:00:12;29.77;;;18.00;;
2299;SDS011;1158;48.750;9.078;2023-02-12T08:02:39;27.00;;;16.40;;
2299;SDS011;1158;48.750;9.078;2023-02-12T08:05:06;31.60;;;19.17;;
2299;SDS011;1158;48.750;9.078;2023-02-12T08:07:33;37.63;;;24.03;;
2299;SDS011;1158;48.750;9.078;2023-02-12T08:10:00;47.97;;;25.10;;
2299;SDS011;1158;48.750;9.078;2023-02-12T08:12:27;45.17;;;25.93;;
2299;SDS011;1158;48.750;9.078;2023-02-12T08:14:55;44.57;;;28.50;;
2299;SDS011;1158;48.750;9.078;2023-02-12T08:17:21;55.17;;;32.43;;
2299;SDS011;1158;48.750;9.078;2023-02-12T08:19:48;51.53;;;32.13;;
2299;SDS011;1158;48.750;9.078;2023-02-12T08:22:15;52.83;;;33.40;;
2299;SDS011;1158;48.750;9.078;2023-02-12T08:24:43;50.70;;;32.10;;
2299;SDS011;1158;48.750;9.078;2023-02-12T08:27:09;52.27;;;32.43;;
2299;SDS011;1158;48.750;9.078;2023-02-12T08:29:36;47.60;;;29.90;;
2299;SDS011;1158;48.750;9.078;2023-02-12T08:32:04;56.83;;;34.73;;
2299;SDS011;1158;48.750;9.078;2023-02-12T08:34:34;50.67;;;33.53;;
2299;SDS011;1158;48.750;9.078;2023-02-12T08:37:01;61.77;;;35.50;;
2299;SDS011;1158;48.750;9.078;2023-02-12T08:39:30;56.87;;;35.50;;
2299;SDS011;1158;48.750;9.078;2023-02-12T08:41:57;56.83;;;34.10;;
2299;SDS011;1158;48.750;9.078;2023-02-12T08:44:25;56.30;;;36.20;;
2299;SDS011;1158;48.750;9.078;2023-02-12T08:46:52;49.70;;;32.30;;
2299;SDS011;1158;48.750;9.078;2023-02-12T08:49:22;57.47;;;35.50;;
2299;SDS011;1158;48.750;9.078;2023-02-12T08:51:52;55.20;;;32.40;;
2299;SDS011;1158;48.750;9.078;2023-02-12T08:54:20;56.30;;;33.37;;
2299;SDS011;1158;48.750;9.078;2023-02-12T08:56:48;50.67;;;30.63;;
2299;SDS011;1158;48.750;9.078;2023-02-12T08:59:19;57.57;;;34.53;;
2299;SDS011;1158;48.750;9.078;2023-02-12T09:01:45;52.97;;;33.40;;
2299;SDS011;1158;48.750;9.078;2023-02-12T09:04:16;63.50;;;36.20;;
2299;SDS011;1158;48.750;9.078;2023-02-12T09:06:47;53.77;;;33.90;;
2299;SDS011;1158;48.750;9.078;2023-02-12T09:09:14;52.33;;;33.67;;
2299;SDS011;1158;48.750;9.078;2023-02-12T09:11:41;56.63;;;34.30;;
2299;SDS011;1158;48.750;9.078;2023-02-12T09:14:09;55.70;;;34.67;;
2299;SDS011;1158;48.750;9.078;2023-02-12T09:16:39;49.20;;;32.77;;
2299;SDS011;1158;48.750;9.078;2023-02-12T09:19:06;54.80;;;33.53;;
2299;SDS011;1158;48.750;9.078;2023-02-12T09:21:33;53.10;;;33.30;;
2299;SDS011;1158;48.750;9.078;2023-02-12T09:24:02;52.43;;;34.77;;
2299;SDS011;1158;48.750;9.078;2023-02-12T09:26:29;51.97;;;33.57;;
2299;SDS011;1158;48.750;9.078;2023-02-12T09:28:55;55.17;;;35.10;;
2299;SDS011;1158;48.750;9.078;2023-02-12T09:31:23;52.00;;;32.90;;
2299;SDS011;1158;48.750;9.078;2023-02-12T09:33:52;52.67;;;32.23;;
2299;SDS011;1158;48.750;9.078;2023-02-12T09:36:20;46.00;;;31.47;;
2299;SDS011;1158;48.750;9.078;2023-02-12T09:38:47;44.93;;;27.63;;
2299;SDS011;1158;48.750;9.078;2023-02-12T09:41:20;46.13;;;30.10;;
2299;SDS011;1158;48.750;9.078;2023-02-12T09:44:08;46.37;;;28.73;;
2299;SDS011;1158;48.750;9.078;2023-02-12T09:46:41;44.37;;;26.27;;
2299;SDS011;1158;48.750;9.078;2023-02-12T09:49:14;21.30;;;14.40;;
2299;SDS011;1158;48.750;9.078;2023-02-12T09:51:49;22.87;;;13.67;;
2299;SDS011;1158;48.750;9.078;2023-02-12T09:54:19;20.80;;;13.73;;
2299;SDS011;1158;48.750;9.078;2023-02-12T09:56:49;22.53;;;12.53;;
2299;SDS011;1158;48.750;9.078;2023-02-12T09:59:21;15.37;;;11.17;;
2299;SDS011;1158;48.750;9.078;2023-02-12T10:01:53;16.90;;;11.03;;
2299;SDS011;1158;48.750;9.078;2023-02-12T10:04:20;15.30;;;11.23;;
2299;SDS011;1158;48.750;9.078;2023-02-12T10:06:50;15.07;;;9.10;;
2299;SDS011;1158;48.750;9.078;2023-02-12T10:09:27;16.27;;;10.27;;
2299;SDS011;1158;48.750;9.078;2023-02-12T10:12:07;14.03;;;9.57;;
2299;SDS011;1158;48.750;9.078;2023-02-12T10:14:49;14.97;;;10.07;;
2299;SDS011;1158;48.750;9.078;2023-02-12T10:17:33;13.47;;;8.80;;
2299;SDS011;1158;48.750;9.078;2023-02-12T10:20:18;15.87;;;10.27;;
2299;SDS011;1158;48.750;9.078;2023-02-12T10:23:16;14.90;;;8.83;;
2299;SDS011;1158;48.750;9.078;2023-02-12T10:25:53;16.00;;;9.90;;
2299;SDS011;1158;48.750;9.078;2023-02-12T10:28:25;16.80;;;9.23;;
2299;SDS011;1158;48.750;9.078;2023-02-12T10:30:56;17.87;;;9.40;;
2299;SDS011;1158;48.750;9.078;2023-02-12T10:33:26;15.87;;;8.90;;
2299;SDS011;1158;48.750;9.078;2023-02-12T10:35:56;16.40;;;10.50;;
2299;SDS011;1158;48.750;9.078;2023-02-12T10:38:38;13.60;;;9.40;;
2299;SDS011;1158;48.750;9.078;2023-02-12T10:41:09;14.67;;;9.77;;
2299;SDS011;1158;48.750;9.078;2023-02-12T10:43:41;15.00;;;10.73;;
2299;SDS011;1158;48.750;9.078;2023-02-12T10:46:09;14.87;;;10.70;;
2299;SDS011;1158;48.750;9.078;2023-02-12T10:48:39;16.63;;;10.83;;
2299;SDS011;1158;48.750;9.078;2023-02-12T10:51:20;14.23;;;10.27;;
2299;SDS011;1158;48.750;9.078;2023-02-12T10:54:02;18.37;;;11.13;;
2299;SDS011;1158;48.750;9.078;2023-02-12T10:57:10;16.93;;;12.37;;
2299;SDS011;1158;48.750;9.078;2023-02-12T10:59:46;18.00;;;11.53;;
2299;SDS011;1158;48.750;9.078;2023-02-12T11:02:21;17.77;;;11.10;;
2299;SDS011;1158;48.750;9.078;2023-02-12T11:04:50;16.57;;;10.73;;
2299;SDS011;1158;48.750;9.078;2023-02-12T11:07:19;13.27;;;10.07;;
2299;SDS011;1158;48.750;9.078;2023-02-12T11:09:48;15.63;;;10.43;;
2299;SDS011;1158;48.750;9.078;2023-02-12T11:12:17;19.70;;;11.03;;
2299;SDS011;1158;48.750;9.078;2023-02-12T11:14:50;14.27;;;9.17;;
2299;SDS011;1158;48.750;9.078;2023-02-12T11:17:21;12.23;;;9.77;;
2299;SDS011;1158;48.750;9.078;2023-02-12T11:20:00;13.97;;;9.93;;
2299;SDS011;1158;48.750;9.078;2023-02-12T11:22:29;15.27;;;9.93;;
2299;SDS011;1158;48.750;9.078;2023-02-12T11:24:59;14.40;;;9.60;;
2299;SDS011;1158;48.750;9.078;2023-02-12T11:27:28;14.13;;;9.37;;
2299;SDS011;1158;48.750;9.078;2023-02-12T11:32:48;12.17;;;8.83;;
2299;SDS011;1158;48.750;9.078;2023-02-12T11:35:17;12.50;;;8.33;;
2299;SDS011;1158;48.750;9.078;2023-02-12T11:37:50;14.37;;;9.70;;
2299;SDS011;1158;48.750;9.078;2023-02-12T11:40:20;16.93;;;9.30;;
2299;SDS011;1158;48.750;9.078;2023-02-12T11:42:50;23.57;;;12.87;;
2299;SDS011;1158;48.750;9.078;2023-02-12T11:45:20;23.17;;;15.10;;
2299;SDS011;1158;48.750;9.078;2023-02-12T11:47:52;24.77;;;13.33;;
2299;SDS011;1158;48.750;9.078;2023-02-12T11:50:21;22.50;;;14.53;;
2299;SDS011;1158;48.750;9.078;2023-02-12T11:52:58;26.70;;;16.30;;
2299;SDS011;1158;48.750;9.078;2023-02-12T11:55:31;30.07;;;16.07;;
2299;SDS011;1158;48.750;9.078;2023-02-12T11:58:02;22.17;;;16.20;;
2299;SDS011;1158;48.750;9.078;2023-02-12T12:00:32;22.20;;;15.33;;
2299;SDS011;1158;48.750;9.078;2023-02-12T12:03:05;23.77;;;15.60;;
2299;SDS011;1158;48.750;9.078;2023-02-12T12:05:39;18.50;;;13.70;;
2299;SDS011;1158;48.750;9.078;2023-02-12T12:08:13;18.83;;;14.00;;
2299;SDS011;1158;48.750;9.078;2023-02-12T12:10:46;21.40;;;14.73;;
2299;SDS011;1158;48.750;9.078;2023-02-12T12:13:17;23.27;;;14.93;;
2299;SDS011;1158;48.750;9.078;2023-02-12T12:15:49;22.87;;;12.60;;
2299;SDS011;1158;48.750;9.078;2023-02-12T12:18:37;17.13;;;11.60;;
2299;SDS011;1158;48.750;9.078;2023-02-12T12:21:29;17.27;;;11.40;;
2299;SDS011;1158;48.750;9.078;2023-02-12T12:24:04;18.40;;;12.23;;
2299;SDS011;1158;48.750;9.078;2023-02-12T12:26:37;17.40;;;12.87;;
2299;SDS011;1158;48.750;9.078;2023-02-12T12:29:10;17.93;;;11.23;;
2299;SDS011;1158;48.750;9.078;2023-02-12T12:31:44;18.70;;;11.60;;
2299;SDS011;1158;48.750;9.078;2023-02-12T12:34:14;12.90;;;9.10;;
2299;SDS011;1158;48.750;9.078;2023-02-12T12:36:56;14.13;;;9.60;;
2299;SDS011;1158;48.750;9.078;2023-02-12T12:39:41;14.60;;;9.40;;
2299;SDS011;1158;48.750;9.078;2023-02-12T12:45:24;15.13;;;10.17;;
2299;SDS011;1158;48.750;9.078;2023-02-12T12:48:27;11.73;;;8.13;;
2299;SDS011;1158;48.750;9.078;2023-02-12T12:51:07;15.40;;;9.40;;
2299;SDS011;1158;48.750;9.078;2023-02-12T12:53:50;14.03;;;8.27;;
2299;SDS011;1158;48.750;9.078;2023-02-12T12:56:37;12.50;;;9.03;;
2299;SDS011;1158;48.750;9.078;2023-02-12T12:59:26;12.07;;;8.40;;
2299;SDS011;1158;48.750;9.078;2023-02-12T13:02:18;12.37;;;8.70;;
2299;SDS011;1158;48.750;9.078;2023-02-12T13:05:18;11.33;;;8.40;;
2299;SDS011;1158;48.750;9.078;2023-02-12T13:08:03;11.53;;;8.63;;
2299;SDS011;1158;48.750;9.078;2023-02-12T13:10:35;14.93;;;8.80;;
2299;SDS011;1158;48.750;9.078;2023-02-12T13:13:22;12.13;;;8.83;;
2299;SDS011;1158;48.750;9.078;2023-02-12T13:15:56;13.33;;;9.40;;
2299;SDS011;1158;48.750;9.078;2023-02-12T13:18:33;13.87;;;8.97;;
2299;SDS011;1158;48.750;9.078;2023-02-12T13:21:09;13.80;;;8.20;;
2299;SDS011;1158;48.750;9.078;2023-02-12T13:23:42;12.30;;;8.87;;
2299;SDS011;1158;48.750;9.078;2023-02-12T13:26:14;10.33;;;8.10;;
2299;SDS011;1158;48.750;9.078;2023-02-12T13:28:47;12.17;;;9.00;;
2299;SDS011;1158;48.750;9.078;2023-02-12T13:31:18;13.33;;;8.00;;
2299;SDS011;1158;48.750;9.078;2023-02-12T13:33:49;12.87;;;8.33;;
2299;SDS011;1158;48.750;9.078;2023-02-12T13:36:21;11.70;;;7.47;;
2299;SDS011;1158;48.750;9.078;2023-02-12T13:38:50;12.90;;;7.90;;
2299;SDS011;1158;48.750;9.078;2023-02-12T13:41:21;9.97;;;8.03;;
2299;SDS011;1158;48.750;9.078;2023-02-12T13:43:53;13.70;;;8.63;;
2299;SDS011;1158;48.750;9.078;2023-02-12T13:46:28;15.37;;;8.20;;
2299;SDS011;1158;48.750;9.078;2023-02-12T13:49:06;11.73;;;8.03;;
2299;SDS011;1158;48.750;9.078;2023-02-12T13:51:43;9.50;;;6.67;;
2299;SDS011;1158;48.750;9.078;2023-02-12T13:54:25;10.83;;;6.73;;
2299;SDS011;1158;48.750;9.078;2023-02-12T13:57:07;9.57;;;6.90;;
2299;SDS011;1158;48.750;9.078;2023-02-12T13:59:39;9.70;;;6.87;;
2299;SDS011;1158;48.750;9.078;2023-02-12T14:05:13;9.83;;;6.53;;
2299;SDS011;1158;48.750;9.078;2023-02-12T14:07:47;11.20;;;7.10;;
2299;SDS011;1158;48.750;9.078;2023-02-12T14:13:12;9.83;;;6.17;;
2299;SDS011;1158;48.750;9.078;2023-02-12T14:15:43;8.50;;;6.50;;
2299;SDS011;1158;48.750;9.078;2023-02-12T14:18:26;8.30;;;6.13;;
2299;SDS011;1158;48.750;9.078;2023-02-12T14:27:18;6.40;;;4.90;;
2299;SDS011;1158;48.750;9.078;2023-02-12T14:32:57;9.03;;;4.87;;
2299;SDS011;1158;48.750;9.078;2023-02-12T14:35:42;7.17;;;5.17;;
2299;SDS011;1158;48.750;9.078;2023-02-12T14:41:27;6.97;;;4.63;;
2299;SDS011;1158;48.750;9.078;2023-02-12T14:53:24;7.67;;;4.43;;
2299;SDS011;1158;48.750;9.078;2023-02-12T14:55:54;5.90;;;4.40;;
2299;SDS011;1158;48.750;9.078;2023-02-12T14:58:22;6.83;;;4.47;;
2299;SDS011;1158;48.750;9.078;2023-02-12T15:00:51;6.93;;;4.23;;
2299;SDS011;1158;48.750;9.078;2023-02-12T15:03:28;7.30;;;4.37;;
2299;SDS011;1158;48.750;9.078;2023-02-12T15:06:06;5.57;;;3.90;;
2299;SDS011;1158;48.750;9.078;2023-02-12T15:08:36;6.93;;;4.13;;
2299;SDS011;1158;48.750;9.078;2023-02-12T15:11:13;5.07;;;3.93;;
2299;SDS011;1158;48.750;9.078;2023-02-12T15:13:47;6.43;;;4.27;;
2299;SDS011;1158;48.750;9.078;2023-02-12T15:16:21;5.10;;;3.63;;
2299;SDS011;1158;48.750;9.078;2023-02-12T15:18:55;8.60;;;3.97;;
2299;SDS011;1158;48.750;9.078;2023-02-12T15:21:28;4.80;;;3.97;;
2299;SDS011;1158;48.750;9.078;2023-02-12T15:23:59;6.03;;;4.10;;
2299;SDS011;1158;48.750;9.078;2023-02-12T15:26:30;6.10;;;4.50;;
2299;SDS011;1158;48.750;9.078;2023-02-12T15:28:59;7.53;;;4.87;;
2299;SDS011;1158;48.750;9.078;2023-02-12T15:31:28;5.43;;;4.10;;
2299;SDS011;1158;48.750;9.078;2023-02-12T15:33:56;6.43;;;4.63;;
2299;SDS011;1158;48.750;9.078;2023-02-12T15:36:25;5.63;;;3.80;;
2299;SDS011;1158;48.750;9.078;2023-02-12T15:38:56;4.80;;;4.00;;
2299;SDS011;1158;48.750;9.078;2023-02-12T15:41:26;6.40;;;4.27;;
2299;SDS011;1158;48.750;9.078;2023-02-12T15:43:59;7.20;;;4.80;;
2299;SDS011;1158;48.750;9.078;2023-02-12T15:46:26;7.37;;;3.80;;
2299;SDS011;1158;48.750;9.078;2023-02-12T15:48:53;5.97;;;4.03;;
2299;SDS011;1158;48.750;9.078;2023-02-12T15:51:23;8.10;;;4.30;;